Time;durP1;ratioP1;P1;durP2;ratioP2;P2;SDS_P1;SDS_P2;PMS_P1;PMS_P2;Temp;Humidity;BMP_temperature;BMP_pressure;BME280_temperature;BME280_humidity;BME280_pressure;Samples;Min_cycle;Max_cycle;Signal;HPM_P1;HPM_P2
2023/07/01 00:00:16;;;;;;;5.05;3.75;;;;;;;18.63;50.26;93572.72;5034754;28;20472;-71
2023/07/01 00:02:42;;;;;;;5.90;4.88;;;;;;;18.70;49.84;93582.81;5032921;28;20037;-71
2023/07/01 00:05:08;;;;;;;7.90;4.40;;;;;;;18.71;49.85;93585.19;5034310;28;20040;-71
2023/07/01 00:07:34;;;;;;;5.07;4.57;;;;;;;18.68;50.08;93585.09;5033002;28;20041;-72
2023/07/01 00:09:59;;;;;;;4.38;3.97;;;;;;;18.48;50.54;93565.66;5035353;28;20130;-71
2023/07/01 00:12:24;;;;;;;4.93;4.53;;;;;;;18.52;50.51;93574.56;5031790;28;20491;-71
2023/07/01 00:14:50;;;;;;;4.85;4.32;;;;;;;18.61;50.04;93575.03;5034555;28;20051;-71
2023/07/01 00:17:16;;;;;;;7.32;5.10;;;;;;;18.42;50.52;93548.28;5033143;28;20036;-71
2023/07/01 00:19:42;;;;;;;5.57;5.07;;;;;;;18.53;50.46;93561.88;5033356;28;20035;-71
2023/07/01 00:22:08;;;;;;;5.57;4.95;;;;;;;18.50;50.47;93552.59;5034013;28;20031;-72
2023/07/01 00:24:33;;;;;;;8.05;5.70;;;;;;;18.53;51.01;93561.88;5032550;28;20037;-72
2023/07/01 00:26:59;;;;;;;6.07;5.30;;;;;;;18.38;51.12;93544.78;5033291;28;20040;-72
2023/07/01 00:29:24;;;;;;;6.05;5.07;;;;;;;18.34;51.07;93549.34;5033107;28;20032;-71
2023/07/01 00:31:49;;;;;;;5.75;5.22;;;;;;;18.39;50.81;93544.41;5031492;28;20725;-72
2023/07/01 00:34:15;;;;;;;7.43;4.57;;;;;;;18.46;50.78;93563.34;5034159;28;20016;-70
2023/07/01 00:36:40;;;;;;;5.70;4.53;;;;;;;18.35;51.00;93556.28;5033204;28;20509;-71
2023/07/01 00:39:06;;;;;;;5.95;4.90;;;;;;;18.36;50.94;93563.22;5035266;28;20277;-71
2023/07/01 00:41:31;;;;;;;6.93;4.60;;;;;;;18.31;50.94;93555.47;5031621;28;20044;-71
2023/07/01 00:43:56;;;;;;;6.07;4.80;;;;;;;18.29;51.28;93557.75;5032635;28;20055;-71
2023/07/01 00:46:22;;;;;;;9.82;4.68;;;;;;;18.22;51.44;93554.97;5032762;28;20029;-71
2023/07/01 00:48:48;;;;;;;7.38;4.90;;;;;;;18.15;51.39;93546.81;5032098;28;20493;-71
2023/07/01 00:51:13;;;;;;;4.97;4.57;;;;;;;17.96;51.54;93518.16;5031464;28;20053;-71
2023/07/01 00:53:39;;;;;;;7.13;5.10;;;;;;;18.22;51.66;93552.28;5038465;28;20048;-71
2023/07/01 00:56:06;;;;;;;6.60;4.57;;;;;;;18.16;51.64;93542.97;5046065;28;20036;-71
2023/07/01 00:58:32;;;;;;;8.25;5.35;;;;;;;18.18;51.97;93557.63;5048404;28;20028;-72
2023/07/01 01:01:05;;;;;;;7.70;5.35;;;;;;;18.16;52.20;93557.22;5053257;28;20019;-71
2023/07/01 01:03:43;;;;;;;8.30;5.20;;;;;;;18.01;52.23;93537.44;5054883;28;20087;-71
2023/07/01 01:06:19;;;;;;;6.90;5.20;;;;;;;18.18;52.18;93562.25;5052947;28;20088;-71
2023/07/01 01:09:12;;;;;;;6.05;4.63;;;;;;;18.13;52.13;93557.97;5052432;28;20400;-71
2023/07/01 01:11:43;;;;;;;5.38;4.72;;;;;;;18.16;52.41;93569.91;5053578;28;20552;-71
2023/07/01 01:14:11;;;;;;;6.07;4.93;;;;;;;17.97;52.56;93549.28;5052247;28;20047;-74
2023/07/01 01:16:38;;;;;;;6.88;4.70;;;;;;;18.00;52.71;93546.66;5053778;28;20063;-71
2023/07/01 01:19:28;;;;;;;7.07;5.40;;;;;;;17.82;53.56;93534.84;5050488;28;20869;-71
2023/07/01 01:22:12;;;;;;;6.72;4.90;;;;;;;17.87;53.90;93548.00;5053244;28;20028;-71
2023/07/01 01:24:42;;;;;;;8.43;4.90;;;;;;;17.98;53.35;93548.16;5053261;28;20666;-71
2023/07/01 01:27:12;;;;;;;5.95;5.35;;;;;;;17.96;53.24;93540.44;5051894;28;20033;-70
2023/07/01 01:29:38;;;;;;;4.90;4.50;;;;;;;17.92;53.19;93544.19;5052941;28;20051;-73
2023/07/01 01:32:07;;;;;;;6.72;5.15;;;;;;;17.96;53.22;93545.81;5054779;28;20043;-73
2023/07/01 01:34:33;;;;;;;5.97;5.28;;;;;;;17.94;53.42;93541.97;5051099;28;20063;-74
2023/07/01 01:37:03;;;;;;;6.32;4.88;;;;;;;17.93;53.51;93551.94;5052507;28;20028;-73
2023/07/01 01:39:33;;;;;;;9.57;5.18;;;;;;;17.91;53.52;93543.44;5053259;28;20038;-72
2023/07/01 01:42:16;;;;;;;6.25;4.68;;;;;;;17.87;53.48;93531.84;5051908;28;20040;-72
2023/07/01 01:44:51;;;;;;;7.07;5.40;;;;;;;17.83;53.87;93525.66;5052265;28;20564;-74
2023/07/01 01:47:28;;;;;;;6.82;5.28;;;;;;;17.72;54.16;93524.72;5051998;28;20119;-72
2023/07/01 01:49:58;;;;;;;9.27;6.55;;;;;;;17.69;54.22;93506.66;5052868;28;20110;-73
2023/07/01 01:52:24;;;;;;;7.43;5.75;;;;;;;17.90;53.94;93538.41;5052916;28;20090;-73
2023/07/01 01:54:54;;;;;;;6.93;6.10;;;;;;;17.88;54.21;93541.47;5050717;28;20036;-73
2023/07/01 01:57:21;;;;;;;10.23;6.45;;;;;;;17.87;54.56;93533.75;5053567;28;20118;-74
2023/07/01 01:59:46;;;;;;;6.50;5.53;;;;;;;17.89;54.60;93545.69;5050429;28;20051;-73
2023/07/01 02:02:12;;;;;;;9.05;5.70;;;;;;;17.84;54.51;93537.97;5052120;28;20557;-73
2023/07/01 02:04:38;;;;;;;7.18;5.95;;;;;;;17.78;54.71;93534.03;5053158;28;20031;-74
2023/07/01 02:07:04;;;;;;;6.07;5.32;;;;;;;17.81;54.44;93536.00;5054417;28;20053;-73
2023/07/01 02:09:29;;;;;;;7.93;5.97;;;;;;;17.67;54.41;93525.06;5051264;28;20032;-73
2023/07/01 02:11:55;;;;;;;6.18;5.57;;;;;;;17.75;54.79;93539.34;5049920;28;20040;-72
2023/07/01 02:14:21;;;;;;;8.90;6.85;;;;;;;17.73;54.96;93537.06;5049082;28;20041;-72
2023/07/01 02:16:47;;;;;;;8.18;6.55;;;;;;;17.65;54.83;93529.25;5050938;28;20036;-72
2023/07/01 02:19:12;;;;;;;7.93;5.88;;;;;;;17.76;54.93;93544.38;5051205;28;20028;-73
2023/07/01 02:21:38;;;;;;;6.68;5.97;;;;;;;17.66;54.71;93526.19;5052689;28;20044;-72
2023/07/01 02:24:04;;;;;;;6.85;6.18;;;;;;;17.72;54.77;93527.44;5051102;28;20039;-73
2023/07/01 02:26:29;;;;;;;6.00;5.40;;;;;;;17.62;55.25;93530.75;5051302;28;20500;-72
2023/07/01 02:28:55;;;;;;;6.28;5.68;;;;;;;17.58;55.26;93535.31;5051739;28;20036;-72
2023/07/01 02:31:20;;;;;;;9.35;5.90;;;;;;;17.55;55.40;93536.78;5054183;28;20024;-75
2023/07/01 02:33:46;;;;;;;6.20;5.45;;;;;;;17.67;54.73;93526.97;5048560;28;20712;-72
2023/07/01 02:36:11;;;;;;;6.63;6.03;;;;;;;17.55;54.98;93522.59;5051689;28;20148;-73
2023/07/01 02:38:37;;;;;;;6.88;6.25;;;;;;;17.51;55.39;93530.59;5050705;28;20135;-73
2023/07/01 02:41:02;;;;;;;12.25;6.90;;;;;;;17.48;55.72;93542.09;5053464;28;20400;-73
2023/07/01 02:43:28;;;;;;;9.73;6.68;;;;;;;17.54;55.58;93551.41;5050317;28;20023;-73
2023/07/01 02:45:53;;;;;;;7.65;6.47;;;;;;;17.43;55.62;93533.56;5051559;28;20028;-74
2023/07/01 02:48:18;;;;;;;8.63;6.18;;;;;;;17.42;55.84;93564.25;5051734;28;20036;-74
2023/07/01 02:50:44;;;;;;;7.65;6.35;;;;;;;17.36;56.64;93549.56;5052713;28;20496;-73
2023/07/01 02:53:09;;;;;;;8.70;7.72;;;;;;;17.46;56.29;93559.69;5050532;28;20074;-72
2023/07/01 02:55:35;;;;;;;9.00;6.60;;;;;;;17.42;56.29;93553.50;5051075;28;20497;-72
2023/07/01 02:58:01;;;;;;;7.75;6.90;;;;;;;17.41;56.67;93558.09;5049982;28;20020;-73
2023/07/01 03:00:26;;;;;;;9.25;7.32;;;;;;;17.44;56.63;93556.63;5051251;28;20037;-73
2023/07/01 03:02:52;;;;;;;9.65;7.43;;;;;;;17.44;56.38;93562.00;5051803;28;20045;-73
2023/07/01 03:05:21;;;;;;;8.55;6.68;;;;;;;17.14;56.80;93526.97;5052037;28;20036;-73
2023/07/01 03:07:47;;;;;;;7.90;6.65;;;;;;;17.39;56.85;93559.63;5051597;28;20264;-72
2023/07/01 03:10:13;;;;;;;7.28;6.57;;;;;;;17.28;57.06;93547.91;5052316;28;20064;-73
2023/07/01 03:12:39;;;;;;;10.90;6.90;;;;;;;17.36;57.20;93561.09;5051835;28;20028;-74
2023/07/01 03:15:05;;;;;;;9.40;6.78;;;;;;;17.35;57.18;93559.56;5051631;28;20696;-73
2023/07/01 03:17:30;;;;;;;9.20;6.50;;;;;;;17.27;57.31;93549.03;5050731;28;20036;-73
2023/07/01 03:19:57;;;;;;;7.90;6.50;;;;;;;17.36;57.16;93554.94;5051990;28;20093;-73
2023/07/01 03:22:22;;;;;;;8.60;6.80;;;;;;;17.36;57.32;93555.72;5051241;28;20027;-72
2023/07/01 03:24:48;;;;;;;7.32;6.30;;;;;;;17.39;57.37;93555.00;5052548;28;20025;-73
2023/07/01 03:27:13;;;;;;;7.53;5.90;;;;;;;17.40;57.48;93550.41;5048787;28;20048;-73
2023/07/01 03:29:39;;;;;;;8.38;6.57;;;;;;;17.35;57.48;93537.28;5050592;28;20404;-73
2023/07/01 03:32:05;;;;;;;7.13;6.43;;;;;;;17.42;57.49;93543.53;5052272;28;20121;-73
2023/07/01 03:34:30;;;;;;;6.93;6.18;;;;;;;17.47;57.43;93545.13;5050471;28;20326;-72
2023/07/01 03:36:56;;;;;;;7.72;6.63;;;;;;;17.52;57.63;93550.97;5051450;28;20609;-72
2023/07/01 03:39:21;;;;;;;7.18;6.50;;;;;;;17.53;57.49;93560.59;5052283;28;20086;-72
2023/07/01 03:41:47;;;;;;;7.78;6.97;;;;;;;17.49;57.30;93540.94;5049077;28;20558;-73
2023/07/01 03:44:12;;;;;;;10.30;7.07;;;;;;;17.58;57.35;93546.06;5053563;28;20091;-72
2023/07/01 03:46:38;;;;;;;12.23;7.32;;;;;;;17.52;57.38;93534.06;5053847;28;20031;-74
2023/07/01 03:49:03;;;;;;;9.30;7.32;;;;;;;17.68;57.00;93552.72;5056048;28;20031;-74
2023/07/01 03:51:30;;;;;;;9.48;8.35;;;;;;;17.76;57.15;93562.44;5053341;28;20057;-72
2023/07/01 03:53:55;;;;;;;12.57;8.50;;;;;;;17.76;57.20;93559.75;5055678;28;20098;-73
2023/07/01 03:56:21;;;;;;;10.77;8.50;;;;;;;17.75;57.17;93556.28;5053403;28;20123;-73
2023/07/01 03:58:47;;;;;;;10.90;7.60;;;;;;;17.81;57.03;93565.59;5055124;28;20195;-72
2023/07/01 04:01:16;;;;;;;11.48;8.80;;;;;;;17.77;56.80;93554.00;5054351;28;20399;-74
2023/07/01 04:03:41;;;;;;;11.77;8.20;;;;;;;17.84;56.62;93558.72;5054328;28;20071;-72
2023/07/01 04:06:07;;;;;;;14.35;9.02;;;;;;;17.89;56.49;93553.78;5054760;28;20132;-73
2023/07/01 04:08:33;;;;;;;14.70;8.27;;;;;;;17.85;56.09;93544.09;5053626;28;20796;-73
2023/07/01 04:10:58;;;;;;;14.18;8.60;;;;;;;17.88;56.84;93557.63;5055637;28;20042;-73
2023/07/01 04:13:24;;;;;;;12.40;8.32;;;;;;;18.04;56.33;93568.22;5054431;28;20160;-73
2023/07/01 04:15:50;;;;;;;12.38;8.65;;;;;;;18.04;56.15;93552.06;5053914;28;20064;-74
2023/07/01 04:18:15;;;;;;;16.42;8.88;;;;;;;17.97;57.16;93554.69;5054225;28;20040;-73
2023/07/01 04:20:40;;;;;;;9.95;8.65;;;;;;;17.96;57.38;93558.50;5052978;28;20033;-73
2023/07/01 04:23:06;;;;;;;19.92;9.73;;;;;;;17.94;56.95;93541.97;5054257;28;20099;-73
2023/07/01 04:25:31;;;;;;;12.38;9.43;;;;;;;18.15;56.59;93552.97;5051778;28;20104;-74
2023/07/01 04:27:57;;;;;;;12.13;9.10;;;;;;;17.99;56.86;93555.84;5055465;28;20035;-73
2023/07/01 04:30:23;;;;;;;10.15;8.75;;;;;;;18.09;56.23;93545.59;5053085;28;20133;-73
2023/07/01 04:32:49;;;;;;;9.73;8.52;;;;;;;18.34;56.48;93555.50;5054448;28;20036;-72
2023/07/01 04:35:14;;;;;;;15.07;8.80;;;;;;;18.49;56.60;93551.03;5053870;28;20052;-73
2023/07/01 04:37:40;;;;;;;11.75;8.68;;;;;;;18.56;56.32;93553.81;5052966;28;20040;-72
2023/07/01 04:40:06;;;;;;;10.88;8.65;;;;;;;18.61;56.02;93541.94;5055784;28;20024;-72
2023/07/01 04:42:34;;;;;;;10.02;8.90;;;;;;;18.64;55.47;93552.75;5054951;28;20060;-73
2023/07/01 04:45:00;;;;;;;10.60;9.00;;;;;;;18.70;55.51;93558.56;5053447;28;20903;-73
2023/07/01 04:47:26;;;;;;;10.57;9.27;;;;;;;18.65;56.41;93554.28;5053810;28;20056;-72
2023/07/01 04:49:52;;;;;;;13.40;9.82;;;;;;;18.62;56.17;93555.03;5053110;28;20064;-73
2023/07/01 04:52:22;;;;;;;12.55;9.68;;;;;;;18.76;56.08;93565.22;5055586;28;20602;-73
2023/07/01 04:54:47;;;;;;;14.15;10.88;;;;;;;18.82;55.16;93559.09;5052685;28;20732;-72
2023/07/01 04:57:13;;;;;;;14.60;8.93;;;;;;;18.80;55.73;93566.78;5052621;28;20044;-74
2023/07/01 04:59:38;;;;;;;10.40;9.27;;;;;;;18.84;56.10;93561.44;5052415;28;20093;-74
2023/07/01 05:02:04;;;;;;;15.05;9.40;;;;;;;18.37;55.42;93506.31;5053327;28;20043;-73
2023/07/01 05:04:29;;;;;;;13.52;9.07;;;;;;;18.97;55.32;93568.09;5053460;28;20025;-73
2023/07/01 05:06:54;;;;;;;13.93;9.75;;;;;;;18.91;55.22;93571.50;5056452;28;20117;-72
2023/07/01 05:09:20;;;;;;;12.38;9.63;;;;;;;18.89;54.76;93559.19;5052636;28;20504;-73
2023/07/01 05:11:45;;;;;;;15.02;9.23;;;;;;;18.87;54.80;93561.47;5053460;28;20078;-73
2023/07/01 05:14:10;;;;;;;15.98;9.55;;;;;;;19.07;54.83;93578.19;5051480;28;20045;-73
2023/07/01 05:16:36;;;;;;;12.98;9.50;;;;;;;19.14;54.51;93574.78;5053483;28;20110;-72
2023/07/01 05:19:02;;;;;;;11.00;9.90;;;;;;;19.11;54.17;93564.75;5053630;28;20036;-73
2023/07/01 05:21:31;;;;;;;11.43;8.95;;;;;;;19.23;54.92;93576.03;5053279;28;20710;-72
2023/07/01 05:23:56;;;;;;;10.50;9.38;;;;;;;19.28;54.09;93570.28;5053409;28;20561;-73
2023/07/01 05:26:22;;;;;;;15.82;10.23;;;;;;;19.48;54.10;93573.56;5053282;28;20040;-73
2023/07/01 05:28:47;;;;;;;11.57;8.55;;;;;;;19.58;54.13;93578.25;5051947;28;20397;-73
2023/07/01 05:31:13;;;;;;;12.93;9.77;;;;;;;19.63;51.83;93575.19;5054369;28;20530;-73
2023/07/01 05:33:38;;;;;;;12.13;9.05;;;;;;;19.56;52.45;93575.13;5052165;28;20393;-73
2023/07/01 05:36:04;;;;;;;13.68;9.02;;;;;;;19.59;51.79;93554.75;5047578;28;20079;-73
2023/07/01 05:38:29;;;;;;;9.05;8.15;;;;;;;19.74;52.30;93576.06;5049932;28;20040;-74
2023/07/01 05:40:54;;;;;;;13.38;8.68;;;;;;;19.73;52.11;93557.53;5054209;28;20523;-72
2023/07/01 05:43:20;;;;;;;13.80;8.82;;;;;;;19.86;50.85;93571.47;5051178;28;20388;-73
2023/07/01 05:45:45;;;;;;;16.65;8.88;;;;;;;20.00;51.12;93571.53;5053749;28;20033;-73
2023/07/01 05:48:11;;;;;;;10.90;8.23;;;;;;;20.22;50.93;93583.25;5049747;28;20122;-73
2023/07/01 05:50:36;;;;;;;12.80;9.88;;;;;;;20.26;51.09;93578.66;5053397;28;20045;-73
2023/07/01 05:53:02;;;;;;;18.80;10.18;;;;;;;20.15;51.41;93562.38;5053177;28;20139;-74
2023/07/01 05:55:27;;;;;;;11.98;9.25;;;;;;;20.37;50.74;93579.47;5046697;28;20631;-73
2023/07/01 05:57:53;;;;;;;11.93;9.23;;;;;;;20.33;50.09;93584.09;5049762;28;20123;-73
2023/07/01 06:00:18;;;;;;;13.40;9.48;;;;;;;20.32;50.59;93577.91;5051782;28;20059;-74
2023/07/01 06:02:43;;;;;;;12.13;9.02;;;;;;;20.48;50.80;93574.88;5053302;28;20067;-72
2023/07/01 06:05:09;;;;;;;13.57;9.77;;;;;;;20.34;50.05;93572.09;5052396;28;20086;-72
2023/07/01 06:07:34;;;;;;;11.30;9.75;;;;;;;20.41;50.53;93585.66;5052984;28;20073;-73
2023/07/01 06:10:00;;;;;;;16.15;10.35;;;;;;;20.46;50.79;93572.56;5053319;28;20073;-75
2023/07/01 06:12:26;;;;;;;13.32;9.27;;;;;;;20.45;50.02;93570.22;5052151;28;20043;-73
2023/07/01 06:14:52;;;;;;;13.57;10.25;;;;;;;20.50;49.28;93584.13;5051559;28;20039;-73
2023/07/01 06:17:17;;;;;;;13.82;9.45;;;;;;;20.54;50.34;93582.22;5054331;28;20037;-72
2023/07/01 06:19:42;;;;;;;14.20;10.27;;;;;;;20.56;49.45;93571.03;5042164;28;20031;-72
2023/07/01 06:22:08;;;;;;;12.50;9.80;;;;;;;20.61;49.55;93567.97;5052040;28;20912;-72
2023/07/01 06:24:33;;;;;;;11.25;10.10;;;;;;;20.78;50.04;93577.25;5052719;28;20040;-73
2023/07/01 06:26:59;;;;;;;12.25;10.32;;;;;;;20.88;50.35;93579.25;5050812;28;20115;-73
2023/07/01 06:29:24;;;;;;;12.90;10.70;;;;;;;20.91;48.80;93583.91;5053266;28;20055;-73
2023/07/01 06:31:49;;;;;;;15.55;10.82;;;;;;;20.99;49.26;93583.53;5049764;28;20692;-73
2023/07/01 06:34:18;;;;;;;13.85;10.82;;;;;;;20.96;49.29;93583.53;5052559;28;20036;-74
2023/07/01 06:36:44;;;;;;;11.82;10.50;;;;;;;21.09;48.89;93582.00;5051291;28;20028;-73
2023/07/01 06:39:10;;;;;;;13.52;10.50;;;;;;;21.11;48.82;93574.28;5052424;28;20067;-73
2023/07/01 06:41:35;;;;;;;14.27;10.75;;;;;;;21.25;47.66;93579.69;5051487;28;20582;-73
2023/07/01 06:44:01;;;;;;;14.35;9.02;;;;;;;21.30;48.38;93565.78;5052466;28;20044;-73
2023/07/01 06:46:27;;;;;;;11.43;10.07;;;;;;;21.34;47.81;93563.84;5051544;28;20845;-74
2023/07/01 06:48:52;;;;;;;14.30;10.98;;;;;;;21.39;47.12;93579.69;5052294;28;20131;-72
2023/07/01 06:51:18;;;;;;;19.95;10.35;;;;;;;21.29;47.69;93576.97;5050371;28;20072;-73
2023/07/01 06:53:43;;;;;;;10.88;9.43;;;;;;;21.42;48.15;93584.31;5051283;28;20040;-72
2023/07/01 06:56:09;;;;;;;10.95;9.82;;;;;;;21.52;48.84;93571.16;5049209;28;20922;-73
2023/07/01 06:58:35;;;;;;;12.75;10.05;;;;;;;21.68;48.98;93571.56;5052160;28;20120;-71
2023/07/01 07:01:00;;;;;;;12.48;9.35;;;;;;;21.65;48.46;93566.97;5051451;28;20021;-73
2023/07/01 07:03:26;;;;;;;14.40;10.60;;;;;;;21.65;46.92;93556.13;5052516;28;22469;-73
2023/07/01 07:05:52;;;;;;;11.40;9.93;;;;;;;21.66;47.42;93561.13;5051820;28;20028;-73
2023/07/01 07:08:18;;;;;;;13.85;9.20;;;;;;;21.72;48.30;93550.69;5051992;28;20412;-73
2023/07/01 07:10:43;;;;;;;10.60;9.48;;;;;;;21.76;48.40;93554.16;5052279;28;20052;-72
2023/07/01 07:13:09;;;;;;;12.35;10.00;;;;;;;21.89;47.29;93547.19;5051794;28;20028;-73
2023/07/01 07:15:35;;;;;;;11.02;9.02;;;;;;;21.97;48.00;93543.28;5051102;28;20029;-73
2023/07/01 07:18:01;;;;;;;9.32;7.93;;;;;;;22.16;47.31;93552.91;5052373;28;20541;-72
2023/07/01 07:20:26;;;;;;;9.95;8.15;;;;;;;22.19;46.33;93544.75;5052569;28;20083;-73
2023/07/01 07:22:52;;;;;;;11.07;8.32;;;;;;;22.27;45.74;93545.53;5054408;28;20055;-73
2023/07/01 07:25:17;;;;;;;9.32;7.63;;;;;;;22.17;45.84;93547.09;5057509;28;20583;-73
2023/07/01 07:27:44;;;;;;;10.70;7.60;;;;;;;22.35;43.83;93546.28;5053241;28;20523;-73
2023/07/01 07:30:12;;;;;;;9.55;7.80;;;;;;;22.39;44.03;93547.06;5055617;28;20385;-73
2023/07/01 07:32:38;;;;;;;11.48;6.80;;;;;;;22.30;44.96;93537.38;5055898;28;20036;-72
2023/07/01 07:35:04;;;;;;;7.88;6.65;;;;;;;22.35;45.95;93524.59;5053650;28;20039;-74
2023/07/01 07:37:29;;;;;;;9.23;7.10;;;;;;;22.50;45.29;93542.31;5054300;28;20060;-73
2023/07/01 07:39:55;;;;;;;7.15;6.35;;;;;;;22.51;45.87;93536.53;5054328;28;20103;-72
2023/07/01 07:42:21;;;;;;;10.73;7.05;;;;;;;22.51;45.20;93538.47;5055728;28;20871;-73
2023/07/01 07:44:47;;;;;;;11.25;7.78;;;;;;;22.61;46.33;93527.56;5054542;28;20055;-72
2023/07/01 07:47:14;;;;;;;11.77;8.40;;;;;;;22.76;45.18;93535.63;5055282;28;20036;-73
2023/07/01 07:49:39;;;;;;;11.57;8.15;;;;;;;22.81;44.70;93529.78;5053522;28;20028;-73
2023/07/01 07:52:04;;;;;;;8.48;6.88;;;;;;;22.74;44.95;93527.88;5056702;28;20542;-74
2023/07/01 07:54:30;;;;;;;9.70;8.32;;;;;;;22.63;44.97;93527.94;5053148;28;20052;-74
2023/07/01 07:56:58;;;;;;;13.25;8.77;;;;;;;22.77;46.01;93529.81;5056512;28;20036;-74
2023/07/01 07:59:26;;;;;;;12.70;7.55;;;;;;;22.79;45.19;93532.88;5052728;28;20032;-73
2023/07/01 08:01:52;;;;;;;9.05;7.88;;;;;;;22.88;45.03;93530.50;5052806;28;20041;-74
2023/07/01 08:04:18;;;;;;;9.93;8.13;;;;;;;22.90;45.92;93522.78;5055141;28;20024;-73
2023/07/01 08:06:43;;;;;;;10.85;7.28;;;;;;;22.58;43.13;93466.03;5055400;28;20648;-73
2023/07/01 08:09:08;;;;;;;10.18;5.68;;;;;;;22.94;43.37;93523.50;5056007;28;20033;-72
2023/07/01 08:11:34;;;;;;;10.30;6.15;;;;;;;22.81;42.14;93514.28;5054072;28;20520;-74
2023/07/01 08:14:00;;;;;;;8.95;6.38;;;;;;;22.96;42.99;93520.41;5054743;28;20079;-73
2023/07/01 08:16:25;;;;;;;6.70;6.00;;;;;;;22.98;41.75;93497.13;5054699;28;20034;-72
2023/07/01 08:18:50;;;;;;;8.13;6.97;;;;;;;23.10;42.03;93512.94;5053902;28;20056;-73
2023/07/01 08:21:16;;;;;;;7.35;6.65;;;;;;;23.05;42.56;93505.22;5053466;28;20052;-73
2023/07/01 08:23:41;;;;;;;9.77;7.13;;;;;;;23.00;42.71;93513.78;5053535;28;20024;-73
2023/07/01 08:26:06;;;;;;;7.85;6.55;;;;;;;22.91;42.74;93491.78;5050974;28;20640;-75
2023/07/01 08:28:32;;;;;;;8.88;6.88;;;;;;;23.17;42.51;93516.78;5054914;28;20028;-72
2023/07/01 08:30:58;;;;;;;7.15;6.50;;;;;;;23.14;42.11;93505.53;5053419;28;20013;-74
2023/07/01 08:33:25;;;;;;;10.65;6.65;;;;;;;23.28;42.51;93514.72;5052924;28;20132;-73
2023/07/01 08:35:50;;;;;;;7.60;6.80;;;;;;;23.28;42.50;93504.66;5054446;28;20043;-75
2023/07/01 08:38:15;;;;;;;10.93;6.97;;;;;;;23.41;42.37;93507.66;5053707;28;20412;-74
2023/07/01 08:40:41;;;;;;;10.15;6.55;;;;;;;23.45;42.98;93509.16;5054977;28;20025;-73
2023/07/01 08:43:09;;;;;;;7.57;6.78;;;;;;;23.25;42.08;93510.13;5054126;28;20059;-73
2023/07/01 08:45:35;;;;;;;9.70;6.90;;;;;;;23.25;43.05;93491.13;5053794;28;20033;-73
2023/07/01 08:48:03;;;;;;;8.13;6.32;;;;;;;23.37;41.79;93496.03;5053627;28;20090;-73
2023/07/01 08:50:59;;;;;;;9.07;6.30;;;;;;;23.59;41.41;93497.44;5055482;28;20050;-73
2023/07/01 08:53:25;;;;;;;;;;;;;;;23.33;41.56;93500.72;5055636;28;20039;-73
2023/07/01 08:55:52;;;;;;;7.00;6.30;;;;;;;23.17;41.72;93488.44;5053360;28;19982;-73
2023/07/01 08:58:17;;;;;;;11.00;7.30;;;;;;;23.33;41.07;93496.06;5055872;28;20027;-74
2023/07/01 09:00:43;;;;;;;8.65;6.35;;;;;;;23.25;40.91;93501.97;5053208;28;21285;-73
2023/07/01 09:03:11;;;;;;;9.18;6.05;;;;;;;23.22;39.88;93491.94;5053001;28;20044;-73
2023/07/01 09:05:37;;;;;;;12.98;5.93;;;;;;;23.30;40.29;93485.25;5054381;28;20037;-74
2023/07/01 09:08:05;;;;;;;9.23;5.65;;;;;;;23.46;40.03;93488.22;5052738;28;20067;-73
2023/07/01 09:10:30;;;;;;;7.32;5.53;;;;;;;23.60;41.26;93481.91;5054995;28;20016;-71
2023/07/01 09:13:08;;;;;;;8.68;6.43;;;;;;;23.49;40.59;93471.94;5054177;28;20059;-73
2023/07/01 09:15:43;;;;;;;8.88;6.05;;;;;;;23.52;41.11;93486.63;5053865;28;20036;-71
2023/07/01 09:18:19;;;;;;;7.55;6.75;;;;;;;23.44;41.23;93485.13;5052376;28;20293;-73
2023/07/01 09:20:44;;;;;;;6.57;5.97;;;;;;;23.34;41.55;93464.28;5052296;28;20036;-73
2023/07/01 09:23:10;;;;;;;7.28;5.72;;;;;;;23.54;40.96;93473.44;5053404;28;20485;-73
2023/07/01 09:25:35;;;;;;;8.27;6.75;;;;;;;23.62;40.32;93469.47;5053591;28;20119;-73
2023/07/01 09:28:00;;;;;;;7.20;6.45;;;;;;;23.51;40.91;93463.41;5067659;28;20021;-73
2023/07/01 09:30:28;;;;;;;7.82;6.40;;;;;;;23.52;41.21;93467.63;5053147;28;20036;-73
2023/07/01 09:33:15;;;;;;;7.43;6.72;;;;;;;23.53;41.06;93455.59;5054526;28;20127;-74
2023/07/01 09:35:43;;;;;;;7.00;6.30;;;;;;;23.66;41.92;93453.91;5053645;28;20036;-73
2023/07/01 09:38:09;;;;;;;7.88;5.68;;;;;;;23.60;40.79;93466.41;5053531;28;20424;-74
2023/07/01 09:40:34;;;;;;;6.88;5.75;;;;;;;23.70;39.73;93454.66;5051490;28;20028;-73
2023/07/01 09:43:00;;;;;;;7.60;6.68;;;;;;;23.86;40.95;93452.13;5053881;28;20013;-73
2023/07/01 09:45:26;;;;;;;8.00;6.20;;;;;;;23.51;41.33;93441.69;5052890;28;20086;-73
2023/07/01 09:47:52;;;;;;;7.78;6.75;;;;;;;23.57;41.26;93451.66;5051400;28;20116;-75
2023/07/01 09:50:21;;;;;;;8.07;6.20;;;;;;;23.64;40.77;93448.13;5051254;28;20149;-74
2023/07/01 09:52:48;;;;;;;7.88;7.07;;;;;;;23.69;41.04;93441.47;5049318;28;20409;-73
2023/07/01 09:55:14;;;;;;;6.82;6.22;;;;;;;23.68;40.80;93429.84;5053691;28;20033;-71
2023/07/01 09:57:40;;;;;;;10.65;7.25;;;;;;;23.75;41.88;93408.06;5051525;28;20040;-73
2023/07/01 10:00:07;;;;;;;7.40;6.70;;;;;;;24.01;41.54;93433.72;5051782;28;20032;-72
2023/07/01 10:02:33;;;;;;;8.23;6.50;;;;;;;24.01;42.83;93414.69;5052661;28;20043;-73
2023/07/01 10:05:01;;;;;;;9.07;6.65;;;;;;;24.18;44.12;93413.75;5050978;28;20117;-72
2023/07/01 10:07:26;;;;;;;8.45;6.50;;;;;;;24.00;41.87;93416.66;5054460;28;20429;-72
2023/07/01 10:09:52;;;;;;;7.90;7.05;;;;;;;24.06;41.27;93414.25;5051464;28;20510;-73
2023/07/01 10:12:20;;;;;;;7.65;6.25;;;;;;;24.18;42.41;93413.75;5052985;28;20408;-73
2023/07/01 10:14:48;;;;;;;7.78;6.97;;;;;;;24.19;41.97;93411.81;5053736;28;20041;-72
2023/07/01 10:17:15;;;;;;;8.10;6.15;;;;;;;24.14;42.26;93390.53;5051440;28;20044;-73
2023/07/01 10:19:46;;;;;;;9.27;7.18;;;;;;;24.04;41.88;93402.28;5050775;28;20020;-73
2023/07/01 10:22:28;;;;;;;8.05;6.93;;;;;;;24.08;41.63;93402.97;5050893;28;20076;-72
2023/07/01 10:25:01;;;;;;;9.13;7.05;;;;;;;24.20;41.64;93402.47;5053819;28;20047;-73
2023/07/01 10:27:47;;;;;;;8.20;6.65;;;;;;;24.20;41.57;93405.94;5050575;28;20040;-72
2023/07/01 10:30:13;;;;;;;8.70;7.38;;;;;;;24.21;41.26;93387.69;5051040;28;20040;-72
2023/07/01 10:32:39;;;;;;;10.15;7.50;;;;;;;24.38;41.56;93394.84;5052825;28;20127;-74
2023/07/01 10:35:04;;;;;;;7.95;6.95;;;;;;;24.51;40.96;93392.31;5051993;28;20468;-73
2023/07/01 10:37:32;;;;;;;8.73;7.47;;;;;;;24.46;40.06;93385.38;5051771;28;20047;-72
2023/07/01 10:40:07;;;;;;;10.52;7.30;;;;;;;24.51;40.87;93379.50;5052633;28;20081;-74
2023/07/01 10:42:36;;;;;;;7.45;6.30;;;;;;;24.59;40.51;93383.63;5053845;28;20032;-73
2023/07/01 10:45:11;;;;;;;8.73;7.57;;;;;;;24.70;40.80;93376.06;5050196;28;20460;-73
2023/07/01 10:47:36;;;;;;;;;;;;;;;24.64;40.22;93383.16;5054226;28;20045;-73
2023/07/01 10:50:04;;;;;;;9.30;7.07;;;;;;;24.52;41.56;93382.97;5050617;28;20273;-73
2023/07/01 10:52:31;;;;;;;12.77;7.30;;;;;;;24.58;39.66;93387.56;5052146;28;20401;-73
2023/07/01 10:54:59;;;;;;;10.73;6.97;;;;;;;24.48;40.66;93366.72;5054667;28;20396;-73
2023/07/01 10:57:24;;;;;;;8.80;6.72;;;;;;;24.66;42.86;93377.31;5056541;28;20039;-73
2023/07/01 10:59:50;;;;;;;8.93;8.07;;;;;;;24.75;41.92;93380.31;5053834;28;20036;-72
2023/07/01 11:02:36;;;;;;;7.88;6.90;;;;;;;24.51;40.37;93365.13;5055212;28;20047;-72
2023/07/01 11:05:07;;;;;;;7.07;6.43;;;;;;;24.63;40.61;93373.50;5056818;28;20036;-73
2023/07/01 11:07:36;;;;;;;10.15;7.30;;;;;;;24.66;40.65;93374.59;5056633;28;20020;-73
2023/07/01 11:10:04;;;;;;;7.28;6.68;;;;;;;24.33;40.16;93324.66;5056706;28;20033;-72
2023/07/01 11:12:30;;;;;;;7.93;6.93;;;;;;;24.74;40.72;93374.09;5053409;28;20552;-72
2023/07/01 11:14:56;;;;;;;10.75;6.70;;;;;;;24.88;42.30;93366.91;5055047;28;20037;-72
2023/07/01 11:17:23;;;;;;;7.10;6.47;;;;;;;24.96;43.21;93365.59;5054956;28;20070;-73
2023/07/01 11:19:55;;;;;;;6.82;6.20;;;;;;;24.93;40.23;93363.72;5054439;28;20858;-72
2023/07/01 11:22:21;;;;;;;6.82;6.00;;;;;;;25.00;40.50;93364.34;5056608;28;20029;-72
2023/07/01 11:24:46;;;;;;;7.72;6.80;;;;;;;25.09;43.02;93355.63;5056150;28;20040;-72
2023/07/01 11:27:12;;;;;;;7.63;6.82;;;;;;;25.16;40.90;93360.97;5054048;28;20036;-74